Time;durP1;ratioP1;P1;durP2;ratioP2;P2;SDS_P1;SDS_P2;PMS_P1;PMS_P2;Temp;Humidity;BMP_temperature;BMP_pressure;BME280_temperature;BME280_humidity;BME280_pressure;Samples;Min_cycle;Max_cycle;Signal;HPM_P1;HPM_P2
2021/12/15 00:01:18;;;;;;;41.95;22.58;;;8.80;99.90;;;;;;5047243;28;20402;-72
2021/12/15 00:03:43;;;;;;;47.53;25.25;;;8.80;99.90;;;;;;5038801;28;20403;-72
2021/12/15 00:06:13;;;;;;;47.00;25.30;;;8.80;99.90;;;;;;5046770;28;20402;-73
2021/12/15 00:08:41;;;;;;;47.00;24.55;;;8.70;99.90;;;;;;5043810;28;20390;-73
2021/12/15 00:11:06;;;;;;;47.97;24.55;;;8.70;99.90;;;;;;5036230;28;20751;-73
2021/12/15 00:13:33;;;;;;;47.42;24.35;;;8.70;99.90;;;;;;5032229;28;20402;-72
2021/12/15 00:15:59;;;;;;;48.33;24.23;;;8.80;99.90;;;;;;5021309;28;20389;-73
2021/12/15 00:18:25;;;;;;;45.53;23.40;;;8.70;99.90;;;;;;5012724;28;20389;-72
2021/12/15 00:20:50;;;;;;;43.37;24.23;;;8.90;99.90;;;;;;5012450;28;20427;-72
2021/12/15 00:23:16;;;;;;;43.17;23.80;;;8.90;99.90;;;;;;5021989;28;20842;-73
2021/12/15 00:25:43;;;;;;;43.07;24.30;;;8.80;99.90;;;;;;5014334;28;20426;-72
2021/12/15 00:28:09;;;;;;;45.67;24.85;;;8.70;99.90;;;;;;5031391;28;20418;-71
2021/12/15 00:30:36;;;;;;;47.67;23.60;;;8.70;99.90;;;;;;5030961;28;20423;-71
2021/12/15 00:33:01;;;;;;;45.08;24.92;;;8.80;99.90;;;;;;5016654;28;20420;-71
2021/12/15 00:35:27;;;;;;;42.63;24.57;;;8.80;99.90;;;;;;5012567;28;20766;-72
2021/12/15 00:37:53;;;;;;;50.27;24.30;;;8.70;99.90;;;;;;5011508;28;20392;-70
2021/12/15 00:40:21;;;;;;;47.78;25.15;;;8.80;99.90;;;;;;5012303;28;20436;-71
2021/12/15 00:42:47;;;;;;;40.95;23.30;;;8.80;99.90;;;;;;5017642;28;20412;-71
2021/12/15 00:45:13;;;;;;;46.17;25.20;;;8.90;99.90;;;;;;5010807;28;20393;-70
2021/12/15 00:47:39;;;;;;;43.35;24.08;;;8.80;99.90;;;;;;5010433;28;20389;-71
2021/12/15 00:50:08;;;;;;;43.67;24.02;;;8.90;99.90;;;;;;5024676;28;20421;-70
2021/12/15 00:52:38;;;;;;;43.38;24.17;;;9.00;99.90;;;;;;5021809;28;20415;-70
2021/12/15 00:55:06;;;;;;;45.13;23.83;;;8.90;99.90;;;;;;5011847;28;20389;-70
2021/12/15 00:57:32;;;;;;;43.65;23.75;;;8.90;99.90;;;;;;5011778;28;20392;-71
2021/12/15 00:59:58;;;;;;;45.35;23.90;;;9.00;99.90;;;;;;5011784;28;20384;-70
2021/12/15 01:02:23;;;;;;;42.63;23.98;;;8.80;99.90;;;;;;5012304;28;20952;-71
2021/12/15 01:04:49;;;;;;;47.57;24.27;;;8.80;99.90;;;;;;5031418;28;20390;-72
2021/12/15 01:07:15;;;;;;;42.50;23.00;;;8.90;99.90;;;;;;5031637;28;20391;-71
2021/12/15 01:09:50;;;;;;;46.73;23.67;;;9.00;99.90;;;;;;5031349;28;20462;-72
2021/12/15 01:20:55;;;;;;;45.45;23.65;;;8.80;99.90;;;;;;5031140;28;20435;-72
2021/12/15 01:23:25;;;;;;;45.17;24.35;;;8.90;99.90;;;;;;5022699;28;20426;-71
2021/12/15 01:26:00;;;;;;;56.28;25.00;;;8.90;99.90;;;;;;5011133;28;20773;-72
2021/12/15 01:28:26;;;;;;;46.47;24.83;;;8.80;99.90;;;;;;5026814;28;20883;-73
2021/12/15 01:30:54;;;;;;;47.70;25.30;;;8.80;99.90;;;;;;5030767;28;20389;-72
2021/12/15 01:33:21;;;;;;;45.00;25.33;;;8.80;99.90;;;;;;5023927;28;20405;-71
2021/12/15 01:35:49;;;;;;;47.67;25.88;;;8.80;99.90;;;;;;5011476;28;20388;-71
2021/12/15 01:38:17;;;;;;;47.00;25.73;;;8.70;99.90;;;;;;5025538;28;20752;-72
2021/12/15 01:40:45;;;;;;;45.90;24.50;;;8.80;99.90;;;;;;5031207;28;20373;-71
2021/12/15 01:43:26;;;;;;;44.75;24.60;;;8.90;99.90;;;;;;5017302;28;20438;-71
2021/12/15 01:48:42;;;;;;;39.00;23.30;;;8.90;99.90;;;;;;5042649;28;20396;-70
2021/12/15 01:51:11;;;;;;;43.58;24.23;;;8.90;99.90;;;;;;5046149;28;20822;-70
2021/12/15 01:53:38;;;;;;;42.78;23.38;;;9.00;99.90;;;;;;5034145;28;20407;-70
2021/12/15 01:56:06;;;;;;;46.13;23.80;;;9.10;99.90;;;;;;5035088;28;20403;-71
2021/12/15 01:58:32;;;;;;;45.33;25.10;;;8.90;99.90;;;;;;5034171;28;20411;-71
2021/12/15 02:01:03;;;;;;;44.22;25.90;;;8.90;99.90;;;;;;5034745;28;20391;-71
2021/12/15 02:03:29;;;;;;;47.08;25.30;;;8.80;99.90;;;;;;5034038;28;20426;-71
2021/12/15 02:05:54;;;;;;;47.97;25.23;;;8.90;99.90;;;;;;5038683;28;20814;-73
2021/12/15 02:08:21;;;;;;;49.00;26.38;;;8.90;99.90;;;;;;5025161;28;20404;-71
2021/12/15 02:10:47;;;;;;;44.67;25.75;;;8.80;99.90;;;;;;5015213;28;20403;-73
2021/12/15 02:13:17;;;;;;;49.60;26.08;;;8.80;99.90;;;;;;5014243;28;20485;-72
2021/12/15 02:15:49;;;;;;;51.95;26.35;;;8.80;99.90;;;;;;5023248;28;20775;-72
2021/12/15 02:18:18;;;;;;;48.38;24.73;;;8.80;99.90;;;;;;5034462;28;20852;-71
2021/12/15 02:20:47;;;;;;;46.00;24.10;;;9.00;99.90;;;;;;5034310;28;20864;-71
2021/12/15 02:23:17;;;;;;;43.38;25.70;;;8.90;99.90;;;;;;5029509;28;20487;-70
2021/12/15 02:25:42;;;;;;;47.78;25.02;;;8.90;99.90;;;;;;5014468;28;20387;-70
2021/12/15 02:28:09;;;;;;;47.47;25.27;;;8.90;99.90;;;;;;5033738;28;20394;-70
2021/12/15 02:33:38;;;;;;;44.60;24.63;;;8.90;99.90;;;;;;5031002;28;20420;-72
2021/12/15 02:38:43;;;;;;;44.88;24.40;;;8.90;99.90;;;;;;5030814;28;20545;-70
2021/12/15 02:41:19;;;;;;;46.65;25.42;;;8.90;99.90;;;;;;5034016;28;20387;-71
2021/12/15 02:43:48;;;;;;;42.95;24.05;;;8.90;99.90;;;;;;5033514;28;20402;-72
2021/12/15 02:46:14;;;;;;;45.50;23.02;;;8.90;99.90;;;;;;5033796;28;20391;-72
2021/12/15 02:48:40;;;;;;;43.47;25.13;;;9.00;99.90;;;;;;5032366;28;20418;-71
2021/12/15 02:51:06;;;;;;;41.92;22.85;;;9.00;99.90;;;;;;5014127;28;20435;-72
2021/12/15 02:53:32;;;;;;;43.30;23.02;;;9.10;99.90;;;;;;5026681;28;20421;-72
2021/12/15 02:55:57;;;;;;;45.17;24.00;;;9.00;99.90;;;;;;5033938;28;20405;-72
2021/12/15 02:58:23;;;;;;;42.23;22.80;;;8.90;99.90;;;;;;5020338;28;20424;-71
2021/12/15 03:01:05;;;;;;;50.45;25.02;;;8.90;99.90;;;;;;5013108;28;20391;-73
2021/12/15 03:06:09;;;;;;;42.78;22.52;;;8.90;99.90;;;;;;5033834;28;20436;-72
2021/12/15 03:08:57;;;;;;;40.50;22.40;;;9.00;99.90;;;;;;5033096;28;20954;-71
2021/12/15 03:16:56;;;;;;;31.00;17.50;;;9.30;99.90;;;;;;5021311;28;20410;-72
2021/12/15 03:19:22;;;;;;;26.73;14.90;;;9.40;99.90;;;;;;5032569;28;20411;-71
2021/12/15 03:21:48;;;;;;;25.10;15.10;;;9.60;96.00;;;;;;5033297;28;20421;-71
2021/12/15 03:24:19;;;;;;;27.33;14.50;;;9.60;93.60;;;;;;5021891;28;20754;-71
2021/12/15 03:26:57;;;;;;;22.13;14.20;;;9.70;90.80;;;;;;5012227;28;20396;-71
2021/12/15 03:35:19;;;;;;;21.67;13.70;;;9.50;96.10;;;;;;5033083;28;20385;-72
2021/12/15 03:37:49;;;;;;;24.95;13.60;;;9.60;97.00;;;;;;5032962;28;20399;-72
2021/12/15 03:40:29;;;;;;;21.10;12.70;;;9.70;93.10;;;;;;5034786;28;20401;-71
2021/12/15 03:43:02;;;;;;;20.67;12.95;;;9.70;91.90;;;;;;5014298;28;20699;-71
2021/12/15 03:45:33;;;;;;;22.45;12.70;;;9.70;92.80;;;;;;5013380;28;20381;-72
2021/12/15 03:48:04;;;;;;;18.13;11.40;;;9.80;90.90;;;;;;5027678;28;20433;-71
2021/12/15 03:50:30;;;;;;;22.80;11.98;;;9.90;87.90;;;;;;5013585;28;20397;-71
2021/12/15 03:52:56;;;;;;;18.23;11.18;;;9.90;88.80;;;;;;5014100;28;20804;-71
2021/12/15 03:55:27;;;;;;;18.92;12.10;;;9.90;87.20;;;;;;5015552;28;20774;-72
2021/12/15 03:57:54;;;;;;;20.33;11.50;;;9.90;85.50;;;;;;5029643;28;20529;-71
2021/12/15 04:00:21;;;;;;;19.50;11.90;;;9.80;85.40;;;;;;5034059;28;20387;-72
2021/12/15 04:02:48;;;;;;;22.23;12.05;;;9.90;86.20;;;;;;5033217;28;20394;-71
2021/12/15 04:05:16;;;;;;;22.27;11.80;;;9.80;86.90;;;;;;5032318;28;20387;-71
2021/12/15 04:07:43;;;;;;;17.05;11.25;;;9.80;88.40;;;;;;5018742;28;20901;-71
2021/12/15 04:10:13;;;;;;;20.65;11.90;;;9.80;88.20;;;;;;5016257;28;20862;-71
2021/12/15 04:12:42;;;;;;;19.55;11.50;;;9.90;87.60;;;;;;5022960;28;20969;-71
2021/12/15 04:17:51;;;;;;;24.95;12.55;;;9.90;90.10;;;;;;5032025;28;20405;-71
2021/12/15 04:20:20;;;;;;;18.95;11.50;;;9.80;91.70;;;;;;5031623;28;20404;-71
2021/12/15 04:22:47;;;;;;;22.50;12.02;;;9.90;89.40;;;;;;5031533;28;20411;-71
2021/12/15 04:25:22;;;;;;;24.00;12.10;;;9.90;88.10;;;;;;5033256;28;20394;-70
2021/12/15 04:28:03;;;;;;;19.33;11.95;;;9.90;87.90;;;;;;5024531;28;20403;-71
2021/12/15 04:30:32;;;;;;;26.15;12.98;;;9.90;88.00;;;;;;5020901;28;20466;-70
2021/12/15 04:33:02;;;;;;;22.35;12.70;;;9.80;90.80;;;;;;5011903;28;20447;-70
2021/12/15 04:35:28;;;;;;;26.15;13.70;;;9.80;89.90;;;;;;5012414;28;20407;-70
2021/12/15 04:37:54;;;;;;;20.17;12.53;;;9.70;93.40;;;;;;5025439;28;20391;-71
2021/12/15 04:40:22;;;;;;;22.00;13.20;;;9.80;93.10;;;;;;5031153;28;20395;-71
2021/12/15 04:42:48;;;;;;;21.58;12.20;;;9.70;93.40;;;;;;5022629;28;20399;-70
2021/12/15 04:45:18;;;;;;;18.73;11.18;;;9.80;92.80;;;;;;5020185;28;20385;-70
2021/12/15 04:47:44;;;;;;;24.33;11.05;;;9.90;89.20;;;;;;5032890;28;20399;-71
2021/12/15 04:50:10;;;;;;;22.75;12.43;;;9.80;89.40;;;;;;5032340;28;20457;-71
2021/12/15 04:52:36;;;;;;;20.88;11.32;;;9.80;92.70;;;;;;5012310;28;20743;-71
2021/12/15 04:55:04;;;;;;;24.60;11.35;;;9.80;92.40;;;;;;5011798;28;20388;-71
2021/12/15 04:57:30;;;;;;;18.55;11.50;;;9.90;90.90;;;;;;5021827;28;20868;-71
2021/12/15 04:59:56;;;;;;;21.05;11.30;;;9.80;92.00;;;;;;5031445;28;20402;-71
2021/12/15 05:02:23;;;;;;;21.20;11.48;;;9.80;92.50;;;;;;5030649;28;20403;-71
2021/12/15 05:04:50;;;;;;;19.10;11.38;;;9.70;94.50;;;;;;5031095;28;20398;-71
2021/12/15 05:07:16;;;;;;;16.70;10.20;;;9.70;94.60;;;;;;5030598;28;20459;-71
2021/12/15 05:09:44;;;;;;;20.75;11.80;;;9.80;93.50;;;;;;5031142;28;20799;-73
2021/12/15 05:12:10;;;;;;;16.65;11.05;;;9.70;94.80;;;;;;5024214;28;20413;-74
2021/12/15 05:14:36;;;;;;;20.60;11.55;;;9.70;93.60;;;;;;5011615;28;20401;-72
2021/12/15 05:17:02;;;;;;;17.58;10.70;;;9.70;93.70;;;;;;5030153;28;20445;-73
2021/12/15 05:19:28;;;;;;;17.55;9.80;;;9.80;91.20;;;;;;5030579;28;20426;-73
2021/12/15 05:21:57;;;;;;;18.63;10.67;;;9.90;89.90;;;;;;5030763;28;20391;-73
2021/12/15 05:24:32;;;;;;;21.08;10.93;;;9.80;90.10;;;;;;5030798;28;20481;-73
2021/12/15 05:27:05;;;;;;;18.00;11.07;;;9.80;91.50;;;;;;5030328;28;20422;-72
2021/12/15 05:29:31;;;;;;;16.60;10.63;;;9.90;91.40;;;;;;5023546;28;20385;-72
2021/12/15 05:31:57;;;;;;;17.90;11.23;;;9.80;92.10;;;;;;5022106;28;20708;-73
2021/12/15 05:34:25;;;;;;;20.80;11.80;;;9.70;92.70;;;;;;5031171;28;20387;-73
2021/12/15 05:36:52;;;;;;;18.10;11.47;;;9.80;93.30;;;;;;5030585;28;20391;-72
2021/12/15 05:39:18;;;;;;;17.90;11.13;;;9.80;93.10;;;;;;5025572;28;20443;-72
2021/12/15 05:41:44;;;;;;;16.27;11.13;;;9.70;95.20;;;;;;5011028;28;20423;-72
2021/12/15 05:44:10;;;;;;;21.67;12.20;;;9.70;96.20;;;;;;5011195;28;20409;-72
2021/12/15 05:46:36;;;;;;;19.92;11.30;;;9.60;99.60;;;;;;5012413;28;20393;-72
2021/12/15 05:49:03;;;;;;;20.50;12.13;;;9.70;98.40;;;;;;5027919;28;20395;-71
2021/12/15 05:51:29;;;;;;;19.60;11.50;;;9.70;99.70;;;;;;5011149;28;20468;-76
2021/12/15 05:53:54;;;;;;;19.15;12.00;;;9.60;99.50;;;;;;5010551;28;20957;-72
2021/12/15 05:56:20;;;;;;;23.60;11.93;;;9.70;99.90;;;;;;5011976;28;20392;-72
2021/12/15 05:58:46;;;;;;;27.05;14.65;;;9.70;99.10;;;;;;5029050;28;20486;-73
2021/12/15 06:01:12;;;;;;;23.08;12.00;;;9.70;99.00;;;;;;5010988;28;20389;-73
2021/12/15 06:03:38;;;;;;;20.30;12.50;;;9.60;99.90;;;;;;5010158;28;20916;-75
2021/12/15 06:06:04;;;;;;;19.52;12.30;;;9.60;99.90;;;;;;5011960;28;20914;-75
2021/12/15 06:08:30;;;;;;;21.85;13.93;;;9.70;99.90;;;;;;5027991;28;20932;-75
2021/12/15 06:10:55;;;;;;;21.60;12.00;;;9.70;99.90;;;;;;5013248;28;20436;-75
2021/12/15 06:13:26;;;;;;;23.70;13.30;;;9.60;98.00;;;;;;5027102;28;20498;-75
2021/12/15 06:15:53;;;;;;;20.30;12.03;;;9.60;99.50;;;;;;5030424;28;20474;-75
2021/12/15 06:18:20;;;;;;;20.05;12.15;;;9.60;99.90;;;;;;5030450;28;20395;-74
2021/12/15 06:20:48;;;;;;;22.55;12.50;;;9.80;98.40;;;;;;5029831;28;20391;-75
2021/12/15 06:23:22;;;;;;;18.92;11.73;;;9.90;94.40;;;;;;5030627;28;20394;-74
2021/12/15 06:25:52;;;;;;;20.05;11.77;;;9.80;95.00;;;;;;5030446;28;20388;-74
2021/12/15 06:28:18;;;;;;;23.08;13.55;;;9.80;95.00;;;;;;5029790;28;20936;-74
2021/12/15 06:30:44;;;;;;;18.48;12.02;;;9.80;95.40;;;;;;5015689;28;20396;-74
2021/12/15 06:33:11;;;;;;;21.80;12.50;;;9.70;96.80;;;;;;5010547;28;20472;-74
2021/12/15 06:35:37;;;;;;;21.80;13.40;;;9.80;95.80;;;;;;5010328;28;20385;-74
2021/12/15 06:38:04;;;;;;;20.95;12.60;;;9.80;94.80;;;;;;5026553;28;20760;-72
2021/12/15 06:40:30;;;;;;;21.88;12.60;;;9.90;93.50;;;;;;5033621;28;20391;-73
2021/12/15 06:42:56;;;;;;;26.60;14.35;;;10.00;88.60;;;;;;5014720;28;20457;-73
2021/12/15 06:45:28;;;;;;;23.37;14.37;;;10.10;87.60;;;;;;5014539;28;20479;-74
2021/12/15 06:58:50;;;;;;;36.33;17.80;;;9.80;94.20;;;;;;5020756;28;20410;-75
2021/12/15 07:01:16;;;;;;;30.57;18.27;;;9.70;95.20;;;;;;5014057;28;20616;-74
2021/12/15 07:03:42;;;;;;;27.90;17.35;;;9.80;94.90;;;;;;5013913;28;20393;-74
2021/12/15 07:06:08;;;;;;;27.65;15.90;;;9.80;94.90;;;;;;5014621;28;20395;-75
2021/12/15 07:08:36;;;;;;;31.23;18.10;;;9.70;97.00;;;;;;5029816;28;20764;-74
2021/12/15 07:11:02;;;;;;;30.33;17.67;;;9.70;97.90;;;;;;5042167;28;20383;-73
2021/12/15 07:13:28;;;;;;;30.77;17.85;;;9.80;97.00;;;;;;5024582;28;20412;-73
2021/12/15 07:16:05;;;;;;;28.00;17.27;;;9.80;95.30;;;;;;5023997;28;20386;-74
2021/12/15 07:18:41;;;;;;;31.00;17.30;;;9.70;95.70;;;;;;5029589;28;20862;-73
2021/12/15 07:21:10;;;;;;;27.98;16.30;;;9.90;94.20;;;;;;5025976;28;20711;-75
2021/12/15 07:23:37;;;;;;;30.60;16.80;;;9.80;94.30;;;;;;5033021;28;20383;-75
2021/12/15 07:26:04;;;;;;;24.10;15.70;;;9.90;93.50;;;;;;5032527;28;20404;-74
2021/12/15 07:28:29;;;;;;;27.40;16.30;;;9.90;90.90;;;;;;5021470;28;20401;-74
2021/12/15 07:30:55;;;;;;;26.10;16.33;;;10.00;89.60;;;;;;5033635;28;20898;-75
2021/12/15 07:33:21;;;;;;;25.00;15.63;;;9.90;90.40;;;;;;5027406;28;20409;-74
2021/12/15 07:35:47;;;;;;;25.38;16.35;;;9.80;92.30;;;;;;5032612;28;20398;-74
2021/12/15 07:38:13;;;;;;;29.08;16.45;;;9.80;93.50;;;;;;5025244;28;20459;-75
2021/12/15 07:40:40;;;;;;;26.87;16.67;;;9.90;92.80;;;;;;5030611;28;20392;-75
2021/12/15 07:43:09;;;;;;;24.83;16.07;;;10.00;90.80;;;;;;5017713;28;20517;-75
2021/12/15 07:45:44;;;;;;;26.30;15.88;;;9.90;90.20;;;;;;5033500;28;20391;-75
2021/12/15 07:48:12;;;;;;;26.48;16.85;;;10.00;88.60;;;;;;5030936;28;20397;-75
2021/12/15 07:50:40;;;;;;;25.33;16.50;;;10.00;90.90;;;;;;5029679;28;20460;-75
2021/12/15 07:53:06;;;;;;;26.27;15.60;;;10.00;91.00;;;;;;5028478;28;20491;-75
2021/12/15 07:55:33;;;;;;;22.25;15.00;;;9.90;91.00;;;;;;5029063;28;20391;-75
2021/12/15 07:58:01;;;;;;;25.15;14.60;;;10.00;90.20;;;;;;5026062;28;20475;-74
2021/12/15 08:00:27;;;;;;;22.65;14.13;;;10.20;86.90;;;;;;5024854;28;20391;-76
2021/12/15 08:02:53;;;;;;;21.77;14.63;;;10.10;87.10;;;;;;5036055;28;20450;-76
2021/12/15 08:05:18;;;;;;;23.02;14.88;;;10.10;88.40;;;;;;5036448;28;20475;-74
2021/12/15 08:07:44;;;;;;;21.67;14.50;;;10.20;84.70;;;;;;5042603;28;20398;-74
2021/12/15 08:10:11;;;;;;;22.05;15.13;;;10.20;84.40;;;;;;5048555;28;20414;-74
2021/12/15 08:12:39;;;;;;;21.40;14.70;;;10.10;86.80;;;;;;5031863;28;20524;-75
2021/12/15 08:15:07;;;;;;;23.83;14.05;;;10.20;86.30;;;;;;5039021;28;20482;-75
2021/12/15 08:17:33;;;;;;;22.17;13.90;;;10.20;85.10;;;;;;5033767;28;20388;-76
2021/12/15 08:19:59;;;;;;;20.85;14.02;;;10.30;83.80;;;;;;5032061;28;20401;-74
2021/12/15 08:22:24;;;;;;;22.35;14.23;;;10.30;82.80;;;;;;5030678;28;20401;-74
2021/12/15 08:24:50;;;;;;;20.58;14.43;;;10.30;85.30;;;;;;5028016;28;20399;-74
2021/12/15 08:27:16;;;;;;;27.02;15.60;;;10.30;84.10;;;;;;5018354;28;20418;-74
2021/12/15 08:29:41;;;;;;;22.05;14.57;;;10.30;83.30;;;;;;5026502;28;20398;-76
2021/12/15 08:32:07;;;;;;;20.92;14.23;;;10.30;83.60;;;;;;5031207;28;20395;-75
2021/12/15 08:34:33;;;;;;;22.00;15.10;;;10.20;83.80;;;;;;5023914;28;20938;-76
2021/12/15 08:36:59;;;;;;;20.98;13.70;;;10.20;85.00;;;;;;5030296;28;20766;-74
2021/12/15 08:39:24;;;;;;;21.08;13.98;;;10.30;85.10;;;;;;5027683;28;20399;-76
2021/12/15 08:41:50;;;;;;;21.98;13.60;;;10.20;83.80;;;;;;5019240;28;20388;-76
2021/12/15 08:44:16;;;;;;;20.67;14.00;;;10.30;84.40;;;;;;5033385;28;20470;-77
2021/12/15 08:46:46;;;;;;;19.80;12.68;;;10.40;82.60;;;;;;5032118;28;20417;-75
2021/12/15 08:49:16;;;;;;;19.80;13.90;;;10.30;83.60;;;;;;5031857;28;20407;-74
2021/12/15 08:51:42;;;;;;;20.45;14.70;;;10.30;83.60;;;;;;5033866;28;20837;-74
2021/12/15 08:54:12;;;;;;;24.75;15.00;;;10.20;85.40;;;;;;5027001;28;20415;-74
2021/12/15 08:56:37;;;;;;;20.75;14.02;;;10.30;85.60;;;;;;5033028;28;20391;-76
2021/12/15 08:59:05;;;;;;;18.83;13.80;;;10.20;84.40;;;;;;5031500;28;20425;-75
2021/12/15 09:01:31;;;;;;;25.25;15.40;;;10.20;85.10;;;;;;5031472;28;20391;-75
2021/12/15 09:03:56;;;;;;;24.57;14.80;;;10.20;85.90;;;;;;5032231;28;20406;-75
2021/12/15 09:06:22;;;;;;;19.05;13.40;;;10.30;85.90;;;;;;5032210;28;20391;-75
2021/12/15 09:08:48;;;;;;;19.02;13.07;;;10.40;84.10;;;;;;5030972;28;20404;-76
2021/12/15 09:11:17;;;;;;;23.05;13.52;;;10.50;82.60;;;;;;5030498;28;20399;-76
2021/12/15 09:13:44;;;;;;;20.97;14.10;;;10.40;82.00;;;;;;5010913;28;20451;-75
2021/12/15 09:16:12;;;;;;;23.80;13.70;;;10.40;82.10;;;;;;5023818;28;20490;-75
2021/12/15 09:18:40;;;;;;;20.65;14.52;;;10.40;81.90;;;;;;5028949;28;20399;-75
2021/12/15 09:21:08;;;;;;;18.52;13.23;;;10.50;82.00;;;;;;5031048;28;20860;-75
2021/12/15 09:23:34;;;;;;;20.77;13.55;;;10.40;81.70;;;;;;5019825;28;20400;-76
2021/12/15 09:26:00;;;;;;;20.17;13.15;;;10.50;80.20;;;;;;5029840;28;20489;-75
2021/12/15 09:28:26;;;;;;;20.02;13.48;;;10.60;79.10;;;;;;5018254;28;20420;-75
2021/12/15 09:30:54;;;;;;;21.60;13.80;;;10.50;80.10;;;;;;5022287;28;20462;-74
2021/12/15 09:33:24;;;;;;;18.75;12.65;;;10.50;81.80;;;;;;5021499;28;20415;-76
2021/12/15 09:35:50;;;;;;;22.42;13.65;;;10.50;81.00;;;;;;5035117;28;20383;-79
2021/12/15 09:38:19;;;;;;;20.58;13.95;;;10.50;79.00;;;;;;5030249;28;20402;-75
2021/12/15 09:40:47;;;;;;;21.30;13.53;;;10.50;81.10;;;;;;5028501;28;20406;-75
2021/12/15 09:43:14;;;;;;;20.53;14.00;;;10.40;82.90;;;;;;5027861;28;20427;-74
2021/12/15 09:45:51;;;;;;;21.27;13.40;;;10.60;79.80;;;;;;5027844;28;20740;-74
2021/12/15 10:04:30;;;;;;;25.52;14.82;;;10.80;76.20;;;;;;5030083;28;20399;-75
2021/12/15 10:07:21;;;;;;;23.90;15.20;;;10.80;75.50;;;;;;5025191;28;20856;-76
2021/12/15 10:18:29;;;;;;;25.17;15.97;;;10.80;78.10;;;;;;5030238;28;20433;-77
2021/12/15 10:20:55;;;;;;;26.25;16.00;;;10.70;78.10;;;;;;5031879;28;20395;-75
2021/12/15 10:23:25;;;;;;;23.38;14.00;;;10.70;78.50;;;;;;5034211;28;20438;-75
2021/12/15 10:25:54;;;;;;;26.27;15.87;;;10.80;75.20;;;;;;5034330;28;20383;-75
2021/12/15 10:28:26;;;;;;;24.58;15.30;;;10.80;75.70;;;;;;5034300;28;20394;-76
2021/12/15 10:30:57;;;;;;;25.05;15.25;;;10.80;76.70;;;;;;5033617;28;20407;-75
2021/12/15 10:33:43;;;;;;;25.65;15.95;;;10.80;75.50;;;;;;5030821;28;20399;-74
2021/12/15 10:36:15;;;;;;;20.50;14.53;;;10.90;75.90;;;;;;5034503;28;20387;-76
2021/12/15 10:38:45;;;;;;;26.25;14.82;;;11.00;73.60;;;;;;5034483;28;20422;-75
2021/12/15 10:41:29;;;;;;;25.65;15.48;;;11.00;73.20;;;;;;5034644;28;20391;-75
2021/12/15 10:43:59;;;;;;;25.15;14.25;;;10.90;74.30;;;;;;5027160;28;20552;-76
2021/12/15 10:46:35;;;;;;;21.63;13.90;;;10.90;73.50;;;;;;5014675;28;20575;-74
2021/12/15 10:49:05;;;;;;;23.73;14.27;;;11.00;73.90;;;;;;5020823;28;20402;-75
2021/12/15 10:51:47;;;;;;;21.50;13.70;;;11.00;73.70;;;;;;5020698;28;20392;-75
2021/12/15 10:54:23;;;;;;;20.88;14.20;;;11.10;71.50;;;;;;5014062;28;20408;-76
2021/12/15 10:57:12;;;;;;;26.17;14.70;;;11.00;73.10;;;;;;5012632;28;20388;-76
2021/12/15 10:59:45;;;;;;;24.42;14.20;;;10.90;74.40;;;;;;5014677;28;20389;-74
2021/12/15 11:02:16;;;;;;;25.33;14.60;;;11.00;72.00;;;;;;5029639;28;20964;-75
2021/12/15 11:04:46;;;;;;;20.10;13.40;;;11.00;71.30;;;;;;5032786;28;20387;-74
2021/12/15 11:07:20;;;;;;;24.70;14.87;;;11.00;72.90;;;;;;5033385;28;20482;-74
2021/12/15 11:09:59;;;;;;;24.83;15.23;;;11.00;72.40;;;;;;5013840;28;20427;-74
2021/12/15 11:12:31;;;;;;;23.73;15.15;;;11.10;71.30;;;;;;5030009;28;20501;-75
2021/12/15 11:15:07;;;;;;;21.95;14.85;;;11.10;70.60;;;;;;5032608;28;20440;-76
2021/12/15 11:17:53;;;;;;;26.55;15.30;;;11.00;72.60;;;;;;5030752;28;20404;-78
2021/12/15 11:20:30;;;;;;;24.50;14.65;;;11.00;74.20;;;;;;5014548;28;20389;-74
2021/12/15 11:23:13;;;;;;;27.55;15.32;;;11.00;71.50;;;;;;5012753;28;20421;-75
2021/12/15 11:25:48;;;;;;;24.30;15.43;;;11.00;73.00;;;;;;5013607;28;20403;-74
2021/12/15 11:28:24;;;;;;;25.92;15.50;;;11.10;72.30;;;;;;5013812;28;20397;-75
2021/12/15 11:30:55;;;;;;;24.67;15.43;;;11.10;70.90;;;;;;5017796;28;20409;-77
2021/12/15 11:33:27;;;;;;;25.55;15.40;;;11.20;69.30;;;;;;5029917;28;20471;-76
2021/12/15 11:35:55;;;;;;;26.02;16.35;;;11.10;70.40;;;;;;5033528;28;20451;-75
2021/12/15 11:38:28;;;;;;;22.75;15.18;;;11.20;69.10;;;;;;5025349;28;20406;-75
2021/12/15 11:40:56;;;;;;;26.30;16.27;;;11.10;71.70;;;;;;5027894;28;20510;-76
2021/12/15 11:43:41;;;;;;;26.98;16.30;;;11.10;72.20;;;;;;5018985;28;20400;-75
2021/12/15 11:46:36;;;;;;;24.80;15.60;;;11.10;71.80;;;;;;5015295;28;20902;-76
2021/12/15 11:49:15;;;;;;;23.55;15.65;;;11.20;70.70;;;;;;5025333;28;20417;-76
2021/12/15 11:52:03;;;;;;;28.25;17.10;;;11.10;71.40;;;;;;5030901;28;20427;-79
2021/12/15 11:54:36;;;;;;;26.08;15.50;;;11.20;71.50;;;;;;5039568;28;20456;-75
2021/12/15 11:57:24;;;;;;;23.48;16.00;;;11.20;71.00;;;;;;5024624;28;20395;-76
2021/12/15 11:59:53;;;;;;;27.95;16.77;;;11.20;70.40;;;;;;5028913;28;20387;-75
2021/12/15 12:02:32;;;;;;;27.83;16.80;;;11.10;72.30;;;;;;5031472;28;20410;-76
2021/12/15 12:04:59;;;;;;;29.85;17.00;;;11.20;71.60;;;;;;5026984;28;20499;-76
2021/12/15 12:07:28;;;;;;;31.02;16.63;;;11.20;72.70;;;;;;5024482;28;20442;-76
2021/12/15 12:10:10;;;;;;;31.88;16.92;;;11.20;72.00;;;;;;5023962;28;20783;-76
2021/12/15 12:12:47;;;;;;;29.03;17.83;;;11.30;70.30;;;;;;5026203;28;20425;-75
2021/12/15 12:15:18;;;;;;;30.33;16.63;;;11.30;69.60;;;;;;5015512;23;20854;-70
2021/12/15 12:17:47;;;;;;;29.63;17.20;;;11.30;70.60;;;;;;4980551;28;20439;-69
2021/12/15 12:20:17;;;;;;;31.20;18.15;;;11.20;71.80;;;;;;4990684;28;20430;-70
2021/12/15 12:22:45;;;;;;;32.30;18.70;;;11.20;73.60;;;;;;4987024;28;20394;-69
2021/12/15 12:25:21;;;;;;;32.95;17.15;;;11.30;71.70;;;;;;4981617;28;20417;-69
2021/12/15 12:27:48;;;;;;;34.78;18.15;;;11.30;70.40;;;;;;4982837;28;20407;-69
2021/12/15 12:30:23;;;;;;;30.60;18.38;;;11.30;71.20;;;;;;4980331;28;20403;-69
2021/12/15 12:32:51;;;;;;;30.27;18.15;;;11.20;72.30;;;;;;4980888;28;20421;-71
2021/12/15 12:35:21;;;;;;;25.17;16.95;;;11.30;70.60;;;;;;4980676;28;20437;-71
2021/12/15 12:37:59;;;;;;;27.38;17.15;;;11.30;69.80;;;;;;4982523;28;20466;-71
2021/12/15 12:40:29;;;;;;;28.03;17.10;;;11.30;69.50;;;;;;4972289;28;20761;-71
2021/12/15 12:42:55;;;;;;;31.52;19.23;;;11.30;71.00;;;;;;4974082;28;20899;-71
2021/12/15 12:45:36;;;;;;;37.80;20.67;;;11.20;71.40;;;;;;4975862;28;20423;-71
2021/12/15 12:59:32;;;;;;;34.50;20.55;;;11.30;71.20;;;;;;4979233;28;20430;-72
2021/12/15 13:02:00;;;;;;;34.37;18.80;;;11.30;71.10;;;;;;4979288;28;20397;-71
2021/12/15 13:04:37;;;;;;;34.97;19.80;;;11.30;70.60;;;;;;4972068;28;20881;-71
2021/12/15 13:07:03;;;;;;;32.50;19.58;;;11.30;72.00;;;;;;4979633;28;20887;-71
2021/12/15 13:09:45;;;;;;;35.03;19.88;;;11.30;71.50;;;;;;4991625;28;20390;-72
2021/12/15 13:12:27;;;;;;;39.72;21.63;;;11.40;70.70;;;;;;4984582;28;20392;-71
2021/12/15 13:14:57;;;;;;;35.73;19.20;;;11.40;72.20;;;;;;4971817;28;20407;-71
2021/12/15 13:17:27;;;;;;;39.92;21.08;;;11.50;69.90;;;;;;4981197;28;20446;-71
2021/12/15 13:19:55;;;;;;;37.92;20.92;;;11.50;68.70;;;;;;4972230;28;20392;-71
2021/12/15 13:22:37;;;;;;;40.45;20.38;;;11.40;71.90;;;;;;4972554;28;20446;-71
2021/12/15 13:31:01;;;;;;;36.88;20.25;;;11.50;68.70;;;;;;4987794;28;20387;-71
2021/12/15 13:33:34;;;;;;;34.33;20.42;;;11.40;69.00;;;;;;4981000;28;20427;-71
2021/12/15 13:36:10;;;;;;;39.47;21.83;;;11.30;70.60;;;;;;4991818;28;20386;-71
2021/12/15 13:38:43;;;;;;;34.28;20.48;;;11.30;71.30;;;;;;4988420;28;20480;-71
2021/12/15 13:41:37;;;;;;;40.80;22.23;;;11.30;72.10;;;;;;4973387;28;20892;-71
2021/12/15 13:44:35;;;;;;;36.92;21.70;;;11.20;74.00;;;;;;4980928;28;20813;-72
2021/12/15 13:47:07;;;;;;;39.55;21.77;;;11.30;72.40;;;;;;4975478;28;20437;-71
2021/12/15 13:49:42;;;;;;;35.65;22.05;;;11.30;71.80;;;;;;4984290;28;20402;-70
2021/12/15 13:52:29;;;;;;;43.42;23.27;;;11.30;72.40;;;;;;4992352;28;20402;-71
2021/12/15 13:55:03;;;;;;;40.53;21.60;;;11.30;72.80;;;;;;4978747;28;20402;-72
2021/12/15 13:57:38;;;;;;;41.50;22.13;;;11.30;72.20;;;;;;4971876;28;20396;-71
2021/12/15 14:00:21;;;;;;;48.22;24.60;;;11.40;71.90;;;;;;4971698;28;20402;-71
2021/12/15 14:02:55;;;;;;;43.67;24.15;;;11.40;71.30;;;;;;4972408;28;20439;-71
2021/12/15 14:05:30;;;;;;;41.65;22.67;;;11.30;72.80;;;;;;4971564;28;20804;-72
2021/12/15 14:08:05;;;;;;;46.00;25.35;;;11.30;74.00;;;;;;4986381;28;20413;-70
2021/12/15 14:10:33;;;;;;;46.47;25.35;;;11.20;75.50;;;;;;4990782;28;20391;-71
2021/12/15 14:13:03;;;;;;;43.20;24.23;;;11.30;73.80;;;;;;4983610;28;20411;-71